Aviation Digital Data Service (ADDS)

Output produced by TAFs form (1718 UTC 27 March 2015)
found at http://aviationweather.gov/adds/tafs/
 
KAMA 271136Z 2712/2812 15010KT P6SM SCT200